createdAt,value
2019-03-12T00:01:07.308Z,13.68
2019-03-12T00:03:34.733Z,19.10
2019-03-12T00:06:02.178Z,18.95
2019-03-12T00:08:29.624Z,26.65
2019-03-12T00:10:57.076Z,13.93
2019-03-12T00:13:24.520Z,25.77
2019-03-12T00:15:51.970Z,17.77
2019-03-12T00:18:19.406Z,18.98
2019-03-12T00:20:46.844Z,20.48
2019-03-12T00:23:14.292Z,22.45
2019-03-12T00:25:41.737Z,21.20
2019-03-12T00:28:09.177Z,21.23
2019-03-12T00:30:36.604Z,21.33
2019-03-12T00:33:04.110Z,21.27
2019-03-12T00:35:31.488Z,15.13
2019-03-12T00:37:58.924Z,21.10
2019-03-12T00:40:26.377Z,25.50
2019-03-12T00:42:53.831Z,22.35
2019-03-12T00:45:21.257Z,22.73
2019-03-12T00:47:48.748Z,23.25
2019-03-12T00:50:16.195Z,21.37
2019-03-12T00:52:43.616Z,24.98
2019-03-12T00:55:11.147Z,23.15
2019-03-12T00:57:38.603Z,9.75
2019-03-12T01:00:08.396Z,17.65
2019-03-12T01:02:35.840Z,20.70
2019-03-12T01:05:03.870Z,19.12
2019-03-12T01:07:31.304Z,27.02
2019-03-12T01:09:58.733Z,22.60
2019-03-12T01:12:26.213Z,22.32
2019-03-12T01:14:53.525Z,18.45
2019-03-12T01:17:20.750Z,27.30
2019-03-12T01:19:48.173Z,14.63
2019-03-12T01:22:15.442Z,18.70
2019-03-12T01:24:42.877Z,17.30
2019-03-12T01:27:10.338Z,18.15
2019-03-12T01:29:37.774Z,29.52
2019-03-12T01:32:05.211Z,21.33
2019-03-12T01:34:32.661Z,18.40
2019-03-12T01:37:00.088Z,14.87
2019-03-12T01:39:27.524Z,25.10
2019-03-12T01:41:54.981Z,19.92
2019-03-12T01:44:22.425Z,24.37
2019-03-12T01:46:49.852Z,23.73
2019-03-12T01:49:17.452Z,18.98
2019-03-12T01:51:44.870Z,35.52
2019-03-12T01:54:12.308Z,16.48
2019-03-12T01:56:39.802Z,15.15
2019-03-12T01:59:07.246Z,17.32
2019-03-12T02:01:34.655Z,19.92
2019-03-12T02:04:02.104Z,22.55
2019-03-12T02:06:29.556Z,17.23
2019-03-12T02:08:56.982Z,27.27
2019-03-12T02:11:24.447Z,23.00
2019-03-12T02:13:51.869Z,21.55
2019-03-12T02:16:19.335Z,26.23
2019-03-12T02:18:46.795Z,15.35
2019-03-12T02:21:14.220Z,19.20
2019-03-12T02:23:41.656Z,23.52
2019-03-12T02:26:08.993Z,17.17
2019-03-12T02:28:36.358Z,28.45
2019-03-12T02:31:03.789Z,15.20
2019-03-12T02:33:31.259Z,21.20
2019-03-12T02:35:58.868Z,17.75
2019-03-12T02:38:26.302Z,17.42
2019-03-12T02:40:53.747Z,18.85
2019-03-12T02:43:21.181Z,21.35
2019-03-12T02:45:48.749Z,22.25
2019-03-12T02:48:16.189Z,30.92
2019-03-12T02:50:43.631Z,27.02
2019-03-12T02:53:11.067Z,19.00
2019-03-12T02:55:38.516Z,28.95
2019-03-12T02:58:05.941Z,23.52
2019-03-12T03:00:33.388Z,23.38
2019-03-12T03:03:00.813Z,31.75
2019-03-12T03:05:28.270Z,19.07
2019-03-12T03:07:58.352Z,22.85
2019-03-12T03:10:25.823Z,19.32
2019-03-12T03:12:53.210Z,17.20
2019-03-12T03:15:22.648Z,18.73
2019-03-12T03:17:50.078Z,17.42
2019-03-12T03:20:17.498Z,18.20
2019-03-12T03:22:44.954Z,20.50
2019-03-12T03:25:13.081Z,18.73
2019-03-12T03:27:40.532Z,24.25
2019-03-12T03:30:12.373Z,17.90
2019-03-12T03:32:39.809Z,23.38
2019-03-12T03:35:07.246Z,15.38
2019-03-12T03:37:34.666Z,15.13
2019-03-12T03:40:02.087Z,11.43
2019-03-12T03:42:29.542Z,16.80
2019-03-12T03:44:56.962Z,21.52
2019-03-12T03:47:24.442Z,20.05
2019-03-12T03:49:51.885Z,20.10
2019-03-12T03:52:19.361Z,21.00
2019-03-12T03:54:46.819Z,19.30
2019-03-12T03:57:14.270Z,20.00
2019-03-12T03:59:41.695Z,18.37
2019-03-12T04:02:09.141Z,23.38
2019-03-12T04:04:36.659Z,16.85
2019-03-12T04:07:04.055Z,22.20
2019-03-12T04:09:31.484Z,20.32
2019-03-12T04:11:58.939Z,14.98
2019-03-12T04:14:27.438Z,15.65
2019-03-12T04:16:54.830Z,17.62
2019-03-12T04:19:22.266Z,13.58
2019-03-12T04:21:49.725Z,22.27
2019-03-12T04:24:17.165Z,24.67
2019-03-12T04:26:44.609Z,15.48
2019-03-12T04:29:12.041Z,23.40
2019-03-12T04:31:39.487Z,13.58
2019-03-12T04:34:15.309Z,19.15
2019-03-12T04:36:42.727Z,15.85
2019-03-12T04:39:10.151Z,26.50
2019-03-12T04:41:37.591Z,22.45
2019-03-12T04:44:05.020Z,18.85
2019-03-12T04:46:32.431Z,15.75
2019-03-12T04:48:59.869Z,15.50
2019-03-12T04:51:27.312Z,18.92
2019-03-12T04:53:54.831Z,16.07
2019-03-12T04:56:22.251Z,19.27
2019-03-12T04:58:49.709Z,17.23
2019-03-12T05:01:17.156Z,19.10
2019-03-12T05:03:44.581Z,16.65
2019-03-12T05:06:12.019Z,15.23
2019-03-12T05:08:39.465Z,17.75
2019-03-12T05:11:06.885Z,27.48
2019-03-12T05:13:34.358Z,21.27
2019-03-12T05:16:01.992Z,19.87
2019-03-12T05:18:29.408Z,11.63
2019-03-12T05:20:57.881Z,14.43
2019-03-12T05:23:25.303Z,14.07
2019-03-12T05:25:52.732Z,13.32
2019-03-12T05:28:20.176Z,13.88
2019-03-12T05:30:47.698Z,14.60
2019-03-12T05:33:15.137Z,20.08
2019-03-12T05:35:42.669Z,13.98
2019-03-12T05:38:10.139Z,15.10
2019-03-12T05:40:37.570Z,8.08
2019-03-12T05:43:04.920Z,15.65
2019-03-12T05:45:32.385Z,13.72
2019-03-12T05:47:59.804Z,15.72
2019-03-12T05:50:27.274Z,14.87
2019-03-12T05:53:10.693Z,19.85
2019-03-12T05:55:38.133Z,15.15
2019-03-12T05:58:05.562Z,13.13
2019-03-12T06:00:33.000Z,16.67
2019-03-12T06:03:00.452Z,13.22
2019-03-12T06:05:27.892Z,14.78
2019-03-12T06:07:55.635Z,11.15
2019-03-12T06:10:23.170Z,16.90
2019-03-12T06:12:50.593Z,10.18
2019-03-12T06:15:18.229Z,10.95
2019-03-12T06:17:45.683Z,12.58
2019-03-12T06:20:12.950Z,14.28
2019-03-12T06:22:40.424Z,13.55
2019-03-12T06:25:08.058Z,13.48
2019-03-12T06:27:35.644Z,17.15
2019-03-12T06:30:04.107Z,12.15
2019-03-12T06:32:51.040Z,15.72
2019-03-12T06:35:41.276Z,10.35
2019-03-12T06:38:16.001Z,16.97
2019-03-12T06:40:51.561Z,12.78
2019-03-12T06:43:23.190Z,15.03
2019-03-12T06:46:04.280Z,7.12
2019-03-12T06:49:06.647Z,8.88
2019-03-12T06:52:02.225Z,11.45
2019-03-12T06:54:44.692Z,8.80
2019-03-12T06:57:37.684Z,9.88
2019-03-12T07:00:28.835Z,12.10
2019-03-12T07:03:14.346Z,7.22
2019-03-12T07:05:52.933Z,9.60
2019-03-12T07:08:30.644Z,11.18
2019-03-12T07:13:55.683Z,13.13
2019-03-12T07:16:40.948Z,14.00
2019-03-12T07:19:26.825Z,21.73
2019-03-12T07:22:07.603Z,7.60
2019-03-12T07:24:42.738Z,11.75
2019-03-12T07:27:29.700Z,8.38
2019-03-12T07:30:15.876Z,12.55
2019-03-12T07:32:48.913Z,12.37
2019-03-12T07:35:31.823Z,13.20
2019-03-12T07:38:18.805Z,11.20
2019-03-12T07:41:26.405Z,7.12
2019-03-12T07:43:55.646Z,18.20
2019-03-12T07:46:42.637Z,16.75
2019-03-12T07:49:28.465Z,18.62
2019-03-12T07:52:08.757Z,13.43
2019-03-12T07:54:54.568Z,12.88
2019-03-12T07:57:38.875Z,13.85
2019-03-12T08:00:18.002Z,13.18
2019-03-12T08:03:08.682Z,18.67
2019-03-12T08:05:55.265Z,10.30
2019-03-12T08:08:42.220Z,13.50
2019-03-12T08:11:23.064Z,15.55
2019-03-12T08:14:12.564Z,10.38
2019-03-12T08:16:59.245Z,12.98
2019-03-12T08:19:46.228Z,12.03
2019-03-12T08:22:39.073Z,9.70
2019-03-12T08:25:19.500Z,13.00
2019-03-12T08:28:18.573Z,8.13
2019-03-12T08:31:03.905Z,9.95
2019-03-12T08:33:59.758Z,13.85
2019-03-12T08:36:39.860Z,13.03
2019-03-12T08:39:22.768Z,8.00
2019-03-12T08:41:59.733Z,15.00
2019-03-12T08:44:45.341Z,7.55
2019-03-12T08:47:29.802Z,16.75
2019-03-12T08:50:14.750Z,10.30
2019-03-12T08:52:48.308Z,13.18
2019-03-12T08:55:38.273Z,9.83
2019-03-12T08:58:28.045Z,13.58
2019-03-12T09:01:05.391Z,11.85
2019-03-12T09:03:58.219Z,13.15
2019-03-12T09:06:41.086Z,12.55
2019-03-12T09:09:27.449Z,11.57
2019-03-12T09:12:14.412Z,8.48
2019-03-12T09:15:16.432Z,14.10
2019-03-12T09:17:52.599Z,13.68
2019-03-12T09:20:38.413Z,15.28
2019-03-12T09:23:24.218Z,8.30
2019-03-12T09:26:10.359Z,9.88
2019-03-12T09:28:50.719Z,13.65
2019-03-12T09:31:33.065Z,10.53
2019-03-12T09:34:05.501Z,11.88
2019-03-12T09:36:55.241Z,14.90
2019-03-12T09:39:30.820Z,18.75
2019-03-12T09:42:23.783Z,16.12
2019-03-12T09:45:09.600Z,14.28
2019-03-12T09:47:52.944Z,14.80
2019-03-12T09:50:27.336Z,9.75
2019-03-12T09:53:21.156Z,15.23
2019-03-12T09:56:06.588Z,11.78
2019-03-12T09:58:42.520Z,13.75
2019-03-12T10:01:28.820Z,12.70
2019-03-12T10:04:33.843Z,14.95
2019-03-12T10:07:32.940Z,10.03
2019-03-12T10:10:18.175Z,15.23
2019-03-12T10:12:57.385Z,16.32
2019-03-12T10:15:52.958Z,12.55
2019-03-12T10:18:38.476Z,11.30
2019-03-12T10:21:28.908Z,14.83
2019-03-12T10:24:18.586Z,12.85
2019-03-12T10:27:01.301Z,14.45
2019-03-12T10:29:44.369Z,13.80
2019-03-12T10:32:16.868Z,12.00
2019-03-12T10:34:58.359Z,15.95
2019-03-12T10:37:48.154Z,13.20
2019-03-12T10:40:41.234Z,11.60
2019-03-12T10:43:12.851Z,12.73
2019-03-12T10:45:52.052Z,8.83
2019-03-12T10:48:19.544Z,15.38
2019-03-12T10:50:46.952Z,8.60
2019-03-12T10:53:14.396Z,16.02
2019-03-12T10:55:41.869Z,11.78
2019-03-12T10:58:09.320Z,11.70
2019-03-12T11:00:37.057Z,16.93
2019-03-12T11:03:04.527Z,10.63
2019-03-12T11:05:45.001Z,11.25
2019-03-12T11:08:01.177Z,14.35
2019-03-12T11:10:28.908Z,11.28
2019-03-12T11:12:56.352Z,11.88
2019-03-12T11:15:23.792Z,14.35
2019-03-12T11:17:51.241Z,14.73
2019-03-12T11:20:18.937Z,10.03
2019-03-12T11:22:46.397Z,11.88
2019-03-12T11:25:26.041Z,12.25
2019-03-12T11:27:43.112Z,10.43
2019-03-12T11:30:12.321Z,13.75
2019-03-12T11:32:39.767Z,12.25
2019-03-12T11:35:07.449Z,8.00
2019-03-12T11:37:34.902Z,5.33
2019-03-12T11:40:02.734Z,11.33
2019-03-12T11:42:30.157Z,7.85
2019-03-12T11:44:57.584Z,16.12
2019-03-12T11:47:25.056Z,7.85
2019-03-12T11:49:52.384Z,11.10
2019-03-12T11:52:19.908Z,11.10
2019-03-12T11:54:47.547Z,9.25
2019-03-12T11:57:15.040Z,11.95
2019-03-12T11:59:42.477Z,12.07
2019-03-12T12:02:09.954Z,7.35
2019-03-12T12:04:37.388Z,7.87
2019-03-12T12:07:04.837Z,8.35
2019-03-12T12:09:32.269Z,7.10
2019-03-12T12:11:59.704Z,8.05
2019-03-12T12:14:27.139Z,8.83
2019-03-12T12:16:54.797Z,6.00
2019-03-12T12:19:22.236Z,9.48
2019-03-12T12:21:49.651Z,6.83
2019-03-12T12:24:17.171Z,14.58
2019-03-12T12:26:44.538Z,5.45
2019-03-12T12:29:11.981Z,8.15
2019-03-12T12:31:39.434Z,8.83
2019-03-12T12:34:06.862Z,11.35
2019-03-12T12:36:34.296Z,11.70
2019-03-12T12:39:01.759Z,9.93
2019-03-12T12:41:29.184Z,9.10
2019-03-12T12:43:56.628Z,9.03
2019-03-12T12:46:24.101Z,7.97
2019-03-12T12:48:53.337Z,12.82
2019-03-12T12:51:20.879Z,12.98
2019-03-12T12:53:48.448Z,12.45
2019-03-12T12:56:15.900Z,11.45
2019-03-12T12:58:43.367Z,11.22
2019-03-12T13:01:10.969Z,7.60
2019-03-12T13:03:38.397Z,13.15
2019-03-12T13:06:05.848Z,8.85
2019-03-12T13:08:33.296Z,12.60
2019-03-12T13:11:00.730Z,11.80
2019-03-12T13:13:28.187Z,12.13
2019-03-12T13:15:55.710Z,7.00
2019-03-12T13:18:23.149Z,11.78
2019-03-12T13:20:51.008Z,11.48
2019-03-12T13:23:18.653Z,7.67
2019-03-12T13:25:46.096Z,10.20
2019-03-12T13:28:13.588Z,10.68
2019-03-12T13:30:41.026Z,12.30
2019-03-12T13:33:08.449Z,7.75
2019-03-12T13:35:35.897Z,12.93
2019-03-12T13:38:03.329Z,9.53
2019-03-12T13:40:30.784Z,9.60
2019-03-12T13:42:58.244Z,8.15
2019-03-12T13:45:25.845Z,12.78
2019-03-12T13:47:53.223Z,9.18
2019-03-12T13:50:20.858Z,10.68
2019-03-12T13:52:48.663Z,8.50
2019-03-12T13:55:16.348Z,9.60
2019-03-12T13:57:43.761Z,6.65
2019-03-12T14:00:14.464Z,11.00
2019-03-12T14:02:41.914Z,6.75
2019-03-12T14:05:09.791Z,16.90
2019-03-12T14:07:37.256Z,10.60
2019-03-12T14:10:05.416Z,8.38
2019-03-12T14:12:32.842Z,8.58
2019-03-12T14:15:00.392Z,7.15
2019-03-12T14:17:27.800Z,9.25
2019-03-12T14:19:55.436Z,7.87
2019-03-12T14:22:22.856Z,10.98
2019-03-12T14:24:50.284Z,9.70
2019-03-12T14:27:18.070Z,8.65
2019-03-12T14:29:45.503Z,10.03
2019-03-12T14:32:12.932Z,7.35
2019-03-12T14:34:40.578Z,8.08
2019-03-12T14:37:08.009Z,8.00
2019-03-12T14:39:35.449Z,11.65
2019-03-12T14:42:03.398Z,10.15
2019-03-12T14:44:30.839Z,10.85
2019-03-12T14:46:58.263Z,7.12
2019-03-12T14:49:25.704Z,8.23
2019-03-12T14:51:59.950Z,6.62
2019-03-12T14:54:27.352Z,9.88
2019-03-12T14:56:54.808Z,7.40
2019-03-12T14:59:22.232Z,6.10
2019-03-12T15:01:49.735Z,7.37
2019-03-12T15:04:17.198Z,5.35
2019-03-12T15:06:44.722Z,12.03
2019-03-12T15:09:14.111Z,8.05
2019-03-12T15:11:41.532Z,10.48
2019-03-12T15:14:08.967Z,9.28
2019-03-12T15:16:36.445Z,9.95
2019-03-12T15:19:03.874Z,7.95
2019-03-12T15:21:31.316Z,9.13
2019-03-12T15:23:58.756Z,9.55
2019-03-12T15:26:26.200Z,9.60
2019-03-12T15:28:53.848Z,8.33
2019-03-12T15:31:21.308Z,11.18
2019-03-12T15:33:48.912Z,9.78
2019-03-12T15:36:16.342Z,8.28
2019-03-12T15:38:43.897Z,7.80
2019-03-12T15:41:11.340Z,5.67
2019-03-12T15:43:38.764Z,9.10
2019-03-12T15:46:06.229Z,7.87
2019-03-12T15:48:33.669Z,8.15
2019-03-12T15:51:01.113Z,11.85
2019-03-12T15:53:28.549Z,14.33
2019-03-12T15:55:56.171Z,9.98
2019-03-12T15:58:23.608Z,7.78
2019-03-12T16:00:51.037Z,11.73
2019-03-12T16:03:18.529Z,6.62
2019-03-12T16:05:45.977Z,7.35
2019-03-12T16:08:13.409Z,9.78
2019-03-12T16:10:40.849Z,11.95
2019-03-12T16:13:08.520Z,7.92
2019-03-12T16:15:37.781Z,7.30
2019-03-12T16:18:05.388Z,7.28
2019-03-12T16:20:32.857Z,8.15
2019-03-12T16:23:00.293Z,11.93
2019-03-12T16:25:27.692Z,8.03
2019-03-12T16:27:55.149Z,8.78
2019-03-12T16:30:22.572Z,8.30
2019-03-12T16:32:49.996Z,7.67
2019-03-12T16:35:17.572Z,6.83
2019-03-12T16:37:45.053Z,9.80
2019-03-12T16:40:12.496Z,6.85
2019-03-12T16:42:39.975Z,6.55
2019-03-12T16:45:07.753Z,5.28
2019-03-12T16:47:35.193Z,7.50
2019-03-12T16:50:02.840Z,8.03
2019-03-12T16:52:30.272Z,9.33
2019-03-12T16:54:57.716Z,9.35
2019-03-12T16:57:25.167Z,13.88
2019-03-12T16:59:52.600Z,9.30
2019-03-12T17:02:20.022Z,5.58
2019-03-12T17:04:47.559Z,6.40
2019-03-12T17:07:14.996Z,13.75
2019-03-12T17:09:42.475Z,9.00
2019-03-12T17:12:09.974Z,6.53
2019-03-12T17:14:39.104Z,5.92
2019-03-12T17:17:06.641Z,13.15
2019-03-12T17:19:34.070Z,7.12
2019-03-12T17:22:01.511Z,9.20
2019-03-12T17:24:29.970Z,8.43
2019-03-12T17:26:57.386Z,7.62
2019-03-12T17:29:24.848Z,13.53
2019-03-12T17:31:52.316Z,8.90
2019-03-12T17:34:19.771Z,8.10
2019-03-12T17:36:47.304Z,9.05
2019-03-12T17:39:14.749Z,9.08
2019-03-12T17:41:42.173Z,4.67
2019-03-12T17:44:09.608Z,9.05
2019-03-12T17:46:37.158Z,6.15
2019-03-12T17:49:04.604Z,10.00
2019-03-12T17:51:32.048Z,10.43
2019-03-12T17:53:59.504Z,8.98
2019-03-12T17:56:26.933Z,6.90
2019-03-12T17:58:54.357Z,6.42
2019-03-12T18:01:29.351Z,6.40
2019-03-12T18:03:54.236Z,10.80
2019-03-12T18:06:21.880Z,7.53
2019-03-12T18:08:49.966Z,9.15
2019-03-12T18:11:17.808Z,9.85
2019-03-12T18:13:45.926Z,11.28
2019-03-12T18:16:13.652Z,12.28
2019-03-12T18:18:41.381Z,9.25
2019-03-12T18:21:09.301Z,11.65
2019-03-12T18:23:37.221Z,6.60
2019-03-12T18:26:06.813Z,12.10
2019-03-12T18:28:34.776Z,9.85
2019-03-12T18:31:03.173Z,9.63
2019-03-12T18:33:33.756Z,13.55
2019-03-12T18:36:03.489Z,8.85
2019-03-12T18:38:31.671Z,15.90
2019-03-12T18:41:00.139Z,13.48
2019-03-12T18:43:30.229Z,9.85
2019-03-12T18:46:00.763Z,9.45
2019-03-12T18:48:28.632Z,12.28
2019-03-12T18:50:56.429Z,11.33
2019-03-12T18:53:24.357Z,15.90
2019-03-12T18:56:03.768Z,13.15
2019-03-12T18:58:32.184Z,12.20
2019-03-12T19:01:02.860Z,9.10
2019-03-12T19:03:30.902Z,1.65
2019-03-12T19:05:59.153Z,0.98
2019-03-12T19:08:26.872Z,2.42
2019-03-12T19:10:55.139Z,1.17
2019-03-12T19:13:23.060Z,2.47
2019-03-12T19:15:50.587Z,0.80
2019-03-12T19:18:19.476Z,1.25
2019-03-12T19:21:13.231Z,2.05
2019-03-12T19:23:41.279Z,1.07
2019-03-12T19:26:10.164Z,2.65
2019-03-12T19:28:39.331Z,1.75
2019-03-12T19:31:44.432Z,1.75
2019-03-12T19:34:21.239Z,3.12
2019-03-12T19:36:49.172Z,2.70
2019-03-12T19:39:18.380Z,7.17
2019-03-12T19:41:45.997Z,3.70
2019-03-12T19:44:13.716Z,3.40
2019-03-12T19:46:41.263Z,2.62
2019-03-12T19:49:12.456Z,3.90
2019-03-12T19:51:39.965Z,4.62
2019-03-12T19:54:07.739Z,10.53
2019-03-12T19:56:35.241Z,3.30
2019-03-12T19:59:02.695Z,3.22
2019-03-12T20:01:31.160Z,9.48
2019-03-12T20:03:58.597Z,3.83
2019-03-12T20:06:26.112Z,2.87
2019-03-12T20:08:53.573Z,7.37
2019-03-12T20:12:05.023Z,7.95
2019-03-12T20:15:22.568Z,3.52
2019-03-12T20:18:32.428Z,7.15
2019-03-12T20:21:32.793Z,8.00
2019-03-12T20:24:53.441Z,7.60
2019-03-12T20:27:58.557Z,6.42
2019-03-12T20:30:53.844Z,8.15
2019-03-12T20:34:07.948Z,8.85
2019-03-12T20:37:25.711Z,9.00
2019-03-12T20:40:30.948Z,7.03
2019-03-12T20:43:39.021Z,8.33
2019-03-12T20:46:43.312Z,6.22
2019-03-12T20:49:55.081Z,6.08
2019-03-12T20:52:59.285Z,6.10
2019-03-12T20:55:59.316Z,5.03
2019-03-12T20:59:00.728Z,4.15
2019-03-12T21:02:12.258Z,4.97
2019-03-12T21:05:23.487Z,3.60
2019-03-12T21:08:34.779Z,4.15
2019-03-12T21:11:59.123Z,3.65
2019-03-12T21:15:26.740Z,3.70
2019-03-12T21:18:31.820Z,3.27
2019-03-12T21:21:43.940Z,1.92
2019-03-12T21:24:56.400Z,1.65
2019-03-12T21:28:05.324Z,2.85
2019-03-12T21:30:32.857Z,3.05
2019-03-12T21:33:00.286Z,2.80
2019-03-12T21:35:27.744Z,2.58
2019-03-12T21:37:55.168Z,3.52
2019-03-12T21:40:22.618Z,4.15
2019-03-12T21:42:50.042Z,2.08
2019-03-12T21:45:17.836Z,3.60
2019-03-12T21:47:45.309Z,2.87
2019-03-12T21:50:12.759Z,1.50
2019-03-12T21:52:40.235Z,3.90
2019-03-12T21:55:08.573Z,2.85
2019-03-12T21:57:36.012Z,4.47
2019-03-12T22:00:04.799Z,5.72
2019-03-12T22:02:32.214Z,1.60
2019-03-12T22:04:59.539Z,3.70
2019-03-12T22:07:26.978Z,2.33
2019-03-12T22:09:54.542Z,3.72
2019-03-12T22:12:21.984Z,5.45
2019-03-12T22:14:49.508Z,3.05
2019-03-12T22:17:16.943Z,1.62
2019-03-12T22:19:44.397Z,2.55
2019-03-12T22:22:43.268Z,3.50
2019-03-12T22:25:11.562Z,6.05
2019-03-12T22:27:40.384Z,3.25
2019-03-12T22:30:12.572Z,9.95
2019-03-12T22:32:40.016Z,8.00
2019-03-12T22:35:07.481Z,5.72
2019-03-12T22:37:34.908Z,4.72
2019-03-12T22:40:02.457Z,3.80
2019-03-12T22:42:29.916Z,5.67
2019-03-12T22:44:57.347Z,4.00
2019-03-12T22:47:24.772Z,2.95
2019-03-12T22:49:52.224Z,4.83
2019-03-12T22:52:19.656Z,1.92
2019-03-12T22:54:47.254Z,8.00
2019-03-12T22:57:14.659Z,2.77
2019-03-12T22:59:42.075Z,5.42
2019-03-12T23:02:09.549Z,6.37
2019-03-12T23:04:36.980Z,6.97
2019-03-12T23:07:04.415Z,3.85
2019-03-12T23:09:32.063Z,6.78
2019-03-12T23:11:59.598Z,7.28
2019-03-12T23:14:27.041Z,6.35
2019-03-12T23:16:54.480Z,4.42
2019-03-12T23:19:21.884Z,5.75
2019-03-12T23:21:49.349Z,4.35
2019-03-12T23:24:16.808Z,3.12
2019-03-12T23:26:44.205Z,6.35
2019-03-12T23:29:11.656Z,5.47
2019-03-12T23:31:39.085Z,9.20
2019-03-12T23:34:06.516Z,13.28
2019-03-12T23:36:33.928Z,7.53
2019-03-12T23:39:01.373Z,4.25
2019-03-12T23:41:28.836Z,7.35
2019-03-12T23:43:56.303Z,12.55
2019-03-12T23:46:23.724Z,10.25
2019-03-12T23:48:51.269Z,12.53
2019-03-12T23:51:18.755Z,10.30
2019-03-12T23:53:46.236Z,9.68
2019-03-12T23:56:13.651Z,6.92
2019-03-12T23:58:41.089Z,11.10
